createdAt,value
2022-11-01T01:32:29.270Z,100222.94
2022-11-01T01:35:17.952Z,100221.28
2022-11-01T01:38:06.762Z,100220.69
2022-11-01T01:40:55.460Z,100225.84
2022-11-01T01:43:44.834Z,100225.41
2022-11-01T01:46:33.417Z,100221.28
2022-11-01T01:49:23.350Z,100207.31
2022-11-01T01:52:11.943Z,100215.34
2022-11-01T01:55:01.344Z,100212.47
2022-11-01T01:57:50.095Z,100207.91
2022-11-01T02:00:38.599Z,100217.59
2022-11-01T02:03:29.322Z,100216.56
2022-11-01T02:09:18.127Z,100214.28
2022-11-01T02:12:07.156Z,100213.28
2022-11-01T02:14:55.935Z,100218.41
2022-11-01T02:18:09.115Z,100229.13
2022-11-01T02:21:15.615Z,100232.19
2022-11-01T02:24:40.521Z,100233.63
2022-11-01T02:27:34.137Z,100223.34
2022-11-01T02:30:22.987Z,100224.38
2022-11-01T02:33:18.886Z,100226.22
2022-11-01T02:36:10.343Z,100216.38
2022-11-01T02:39:01.917Z,100211.03
2022-11-01T02:41:53.640Z,100217.59
2022-11-01T02:44:45.026Z,100210.59
2022-11-01T02:47:34.498Z,100218.63
2022-11-01T02:50:24.745Z,100221.72
2022-11-01T02:53:14.658Z,100225.00
2022-11-01T02:56:03.229Z,100222.31
2022-11-01T02:58:53.478Z,100206.88
2022-11-01T03:01:53.155Z,100215.53
2022-11-01T05:15:53.210Z,100257.91
2022-11-01T05:18:48.915Z,100248.25
2022-11-01T05:21:37.472Z,100252.59
2022-11-01T05:24:25.856Z,100256.91
2022-11-01T05:27:14.512Z,100250.91
2022-11-01T05:30:03.355Z,100247.63
2022-11-01T06:27:17.338Z,100285.44
2022-11-01T06:30:06.575Z,100289.16
2022-11-01T06:33:01.156Z,100286.72
2022-11-01T06:35:50.021Z,100287.91
2022-11-01T06:38:38.515Z,100299.44
2022-11-01T06:41:27.010Z,100296.97
2022-11-01T06:44:16.960Z,100303.16
2022-11-01T06:47:05.778Z,100314.69
2022-11-01T06:49:54.490Z,100317.38
2022-11-01T08:02:07.844Z,100375.28
2022-11-01T08:04:58.134Z,100376.94
2022-11-01T08:07:46.663Z,100375.94
2022-11-01T08:10:36.143Z,100378.19
2022-11-01T08:13:25.678Z,100369.38
2022-11-01T08:16:18.173Z,100378.00
2022-11-01T08:19:06.713Z,100375.75
2022-11-01T08:21:58.853Z,100374.31
2022-11-01T08:24:49.862Z,100375.13
2022-11-01T08:27:38.404Z,100380.06
2022-11-01T08:30:26.984Z,100384.38
2022-11-01T08:33:15.744Z,100390.97
2022-11-01T08:36:04.478Z,100395.28
2022-11-01T08:38:54.411Z,100390.97
2022-11-01T08:41:43.076Z,100396.31
2022-11-01T08:44:31.556Z,100405.97
2022-11-01T08:47:20.046Z,100421.22
2022-11-01T08:50:11.447Z,100415.88
2022-11-01T11:09:40.740Z,100461.09
2022-11-01T11:12:30.006Z,100451.25
2022-11-01T11:15:22.408Z,100452.09
2022-11-01T11:18:20.486Z,100447.34
2022-11-01T11:21:11.741Z,100437.69
2022-11-01T11:24:00.409Z,100443.66
2022-11-01T11:26:55.525Z,100455.81
2022-11-01T11:29:49.395Z,100458.66
2022-11-01T12:37:26.379Z,100480.06
2022-11-01T12:40:19.823Z,100480.50
2022-11-01T12:43:16.004Z,100473.88
2022-11-01T12:46:07.329Z,100479.22
2022-11-01T12:48:58.305Z,100474.28
2022-11-01T13:28:05.823Z,100525.09
2022-11-01T13:31:01.748Z,100527.78
2022-11-01T13:33:55.157Z,100526.13
2022-11-01T13:36:49.066Z,100530.47
2022-11-01T13:39:45.998Z,100525.34
2022-11-01T13:42:38.542Z,100525.34
2022-11-01T13:45:59.609Z,100533.13
2022-11-01T13:49:07.583Z,100532.09
2022-11-01T13:52:01.414Z,100541.41
2022-11-01T13:54:55.015Z,100543.84
2022-11-01T14:02:34.813Z,100537.25
2022-11-01T14:05:23.706Z,100548.56
2022-11-01T14:08:29.309Z,100540.09
2022-11-01T14:11:45.477Z,100543.81
2022-11-01T14:14:55.142Z,100548.97
2022-11-01T14:18:09.851Z,100550.00
2022-11-01T14:20:59.763Z,100544.66
2022-11-01T14:23:51.021Z,100539.91
2022-11-01T14:26:47.048Z,100541.34
2022-11-01T14:29:37.180Z,100539.69
2022-11-01T14:32:27.581Z,100545.88
2022-11-01T14:35:23.134Z,100543.81
2022-11-01T14:38:16.168Z,100550.38
2022-11-01T14:41:05.684Z,100543.00
2022-11-01T14:43:56.642Z,100550.44
2022-11-01T14:46:47.044Z,100547.78
2022-11-01T14:49:40.461Z,100550.03
2022-11-01T15:08:22.801Z,100552.38
2022-11-01T15:11:11.390Z,100557.97
2022-11-01T15:14:01.131Z,100557.72
2022-11-01T15:16:51.212Z,100552.59
2022-11-01T15:19:40.295Z,100559.78
2022-11-01T15:22:30.693Z,100555.47
2022-11-01T15:25:23.683Z,100552.63
2022-11-01T15:28:21.239Z,100552.22
2022-11-01T15:31:11.037Z,100555.28
2022-11-01T15:34:01.868Z,100550.75
2022-11-01T15:36:50.872Z,100562.03
2022-11-01T15:39:41.862Z,100567.97
2022-11-01T15:42:34.120Z,100563.00
2022-11-01T15:45:30.144Z,100552.38
2022-11-01T15:48:21.566Z,100559.59
2022-11-01T15:51:20.199Z,100558.91
2022-11-01T15:54:17.472Z,100557.91
2022-11-01T15:57:12.001Z,100559.22
2022-11-01T16:00:06.701Z,100564.34
2022-11-01T16:03:00.620Z,100568.81
2022-11-01T16:05:56.679Z,100559.63
2022-11-01T16:08:50.870Z,100557.16
2022-11-01T16:11:39.573Z,100572.75
2022-11-01T16:14:34.839Z,100574.44
2022-11-01T16:17:36.301Z,100566.31
2022-11-01T16:20:30.542Z,100578.69
2022-11-01T16:23:28.418Z,100575.03
2022-11-01T16:26:16.931Z,100577.94
2022-11-01T16:29:05.700Z,100579.09
2022-11-01T16:32:09.854Z,100592.28
2022-11-01T16:35:00.509Z,100592.72
2022-11-01T16:37:48.940Z,100599.78
2022-11-01T16:40:39.158Z,100601.81
2022-11-01T16:43:29.511Z,100604.31
2022-11-01T16:46:18.032Z,100604.88
2022-11-01T16:49:19.535Z,100608.75
2022-11-01T16:52:12.373Z,100622.50
2022-11-01T16:57:54.809Z,100619.84
2022-11-01T17:00:43.634Z,100622.34
2022-11-01T17:03:32.787Z,100621.47
2022-11-01T17:06:21.996Z,100623.94
2022-11-01T17:09:14.897Z,100634.44
2022-11-01T17:12:03.428Z,100624.78
2022-11-01T17:14:52.440Z,100630.53
2022-11-01T17:17:41.415Z,100632.63
2022-11-01T17:20:30.048Z,100640.00
2022-11-01T17:23:20.672Z,100652.56
2022-11-01T17:26:13.200Z,100647.22
2022-11-01T17:29:02.743Z,100652.97
2022-11-01T17:31:51.258Z,100651.59
2022-11-01T17:34:40.142Z,100659.00
2022-11-01T17:37:32.229Z,100661.84
2022-11-01T17:40:22.720Z,100661.22
2022-11-01T17:43:19.068Z,100662.53
2022-11-01T17:46:11.654Z,100660.19
2022-11-01T17:49:00.634Z,100665.97
2022-11-01T17:51:54.698Z,100655.25
2022-11-01T17:54:43.664Z,100656.09
2022-11-01T17:57:32.340Z,100651.91
2022-11-01T18:00:22.394Z,100650.25
2022-11-01T18:03:14.728Z,100650.25
2022-11-01T18:06:03.329Z,100652.31
2022-11-01T18:08:54.048Z,100648.63
2022-11-01T18:11:48.053Z,100652.81
2022-11-01T18:14:56.519Z,100651.13
2022-11-01T18:17:53.927Z,100656.50
2022-11-01T18:20:47.189Z,100652.78
2022-11-01T18:23:36.127Z,100662.69
2022-11-01T18:26:29.614Z,100663.94
2022-11-01T18:29:21.220Z,100661.59
2022-11-01T18:32:18.201Z,100651.81
2022-11-01T18:35:17.638Z,100653.91
2022-11-01T18:38:17.824Z,100658.09
2022-11-01T18:41:13.357Z,100664.69
2022-11-01T18:44:01.967Z,100667.19
2022-11-01T18:46:54.677Z,100668.44
2022-11-01T18:49:43.093Z,100661.03
2022-11-01T18:52:35.101Z,100662.72
2022-11-01T18:55:23.840Z,100663.53
2022-11-01T18:58:16.626Z,100664.38
2022-11-01T19:01:13.723Z,100669.31
2022-11-01T19:04:03.735Z,100674.84
2022-11-01T19:06:52.499Z,100679.59
2022-11-01T19:09:44.655Z,100677.13
2022-11-01T19:12:35.699Z,100672.19
2022-11-01T19:15:27.789Z,100679.19
2022-11-01T19:18:19.802Z,100679.59
2022-11-01T19:21:15.025Z,100689.28
2022-11-01T19:24:10.233Z,100692.38
2022-11-01T19:27:01.625Z,100704.31
2022-11-01T19:29:55.377Z,100696.91
2022-11-01T19:32:46.297Z,100704.53
2022-11-01T19:35:35.089Z,100691.34
2022-11-01T19:38:24.278Z,100694.44
2022-11-01T19:41:14.166Z,100694.44
2022-11-01T19:44:12.032Z,100711.31
2022-11-01T19:47:03.813Z,100707.78
2022-11-01T19:49:52.612Z,100711.75
2022-11-01T19:52:46.892Z,100711.56
2022-11-01T19:55:39.353Z,100710.53
2022-11-01T19:58:37.304Z,100713.81
2022-11-01T20:01:41.920Z,100720.03
2022-11-01T20:04:32.591Z,100724.22
2022-11-01T20:07:26.706Z,100727.28
2022-11-01T20:10:15.269Z,100716.53
2022-11-01T20:13:03.879Z,100724.31
2022-11-01T20:15:52.540Z,100725.13
2022-11-01T20:18:42.300Z,100727.19
2022-11-01T20:21:30.959Z,100737.47
2022-11-01T20:24:19.427Z,100745.06
2022-11-01T20:27:08.036Z,100744.84
2022-11-01T20:29:56.516Z,100733.50
2022-11-01T20:32:48.194Z,100741.13
2022-11-01T20:35:38.549Z,100741.13
2022-11-01T20:38:26.977Z,100743.75
2022-11-01T20:41:15.477Z,100738.56
2022-11-01T20:44:03.984Z,100746.81
2022-11-01T20:46:53.431Z,100748.84
2022-11-01T20:49:41.910Z,100748.03
2022-11-01T20:52:39.576Z,100755.03
2022-11-01T20:55:28.881Z,100756.47
2022-11-01T20:58:17.881Z,100756.47
2022-11-01T21:01:22.076Z,100755.44
2022-11-01T21:04:12.446Z,100751.09
2022-11-01T21:07:00.909Z,100761.16
2022-11-01T21:09:54.742Z,100756.19
2022-11-01T21:12:47.517Z,100742.25
2022-11-01T21:15:40.547Z,100750.84
2022-11-01T21:18:44.060Z,100742.66
2022-11-01T21:21:34.794Z,100743.56
2022-11-01T21:24:31.882Z,100746.38
2022-11-01T21:27:39.082Z,100744.41
2022-11-01T21:30:28.945Z,100747.84
2022-11-01T21:33:32.303Z,100744.34
2022-11-01T21:36:31.309Z,100740.63
2022-11-01T21:39:21.663Z,100737.72
2022-11-01T21:42:26.957Z,100746.38
2022-11-01T21:45:31.269Z,100737.34
2022-11-01T21:48:22.224Z,100740.00
2022-11-01T21:51:10.796Z,100729.94
2022-11-01T21:54:03.277Z,100740.22
2022-11-01T21:56:53.111Z,100734.53
2022-11-01T21:59:41.906Z,100733.22
2022-11-01T22:02:32.018Z,100734.06
2022-11-01T22:05:20.751Z,100724.16
2022-11-01T22:08:09.270Z,100725.81
2022-11-01T22:10:57.959Z,100729.34
2022-11-01T22:13:46.380Z,100728.16
2022-11-01T22:16:35.031Z,100744.84
2022-11-01T22:19:24.952Z,100742.38
2022-11-01T22:22:13.497Z,100742.56
2022-11-01T22:25:01.992Z,100736.25
2022-11-01T22:27:50.426Z,100741.81
2022-11-01T22:30:38.920Z,100743.50
2022-11-01T22:33:27.595Z,100745.56
2022-11-01T22:36:23.570Z,100750.13
2022-11-01T22:39:20.940Z,100752.19
2022-11-01T22:42:10.560Z,100747.28
2022-11-01T22:45:01.724Z,100740.22
2022-11-01T22:47:50.398Z,100750.47
2022-11-01T22:50:38.928Z,100757.91
2022-11-01T22:53:28.812Z,100755.66
2022-11-01T22:56:17.210Z,100743.47
2022-11-01T22:59:05.922Z,100746.78
2022-11-01T23:02:00.332Z,100746.97
2022-11-01T23:04:48.897Z,100753.97
2022-11-01T23:07:40.299Z,100755.22
2022-11-01T23:10:33.275Z,100754.97
2022-11-01T23:13:42.938Z,100754.09
2022-11-01T23:16:34.673Z,100757.34
2022-11-01T23:19:23.284Z,100770.53
2022-11-01T23:22:14.964Z,100757.72
2022-11-01T23:25:05.461Z,100765.50
2022-11-01T23:27:55.882Z,100774.56
2022-11-01T23:30:45.318Z,100769.78
2022-11-01T23:33:36.817Z,100772.28
2022-11-01T23:36:27.839Z,100766.06
2022-11-01T23:39:16.486Z,100773.69
2022-11-01T23:42:05.362Z,100774.09
2022-11-01T23:44:57.504Z,100774.09
2022-11-01T23:47:46.245Z,100770.38
2022-11-01T23:50:36.727Z,100768.31
2022-11-01T23:53:30.932Z,100776.53
2022-11-01T23:56:22.041Z,100765.41
2022-11-01T23:59:11.802Z,100766.63
